createdAt,value
2023-01-17T00:02:16.586Z,93426.28
2023-01-17T00:05:03.152Z,93441.00
2023-01-17T00:07:49.902Z,93436.03
2023-01-17T00:10:19.635Z,93449.00
2023-01-17T00:12:49.455Z,93442.75
2023-01-17T00:15:20.109Z,93457.69
2023-01-17T00:17:49.153Z,93454.09
2023-01-17T00:20:37.079Z,93454.63
2023-01-17T00:23:29.343Z,93462.78
2023-01-17T00:26:06.904Z,93464.00
2023-01-17T00:28:36.265Z,93464.56
2023-01-17T00:31:09.147Z,93456.28
2023-01-17T00:33:36.837Z,93464.38
2023-01-17T00:36:05.388Z,93458.53
2023-01-17T00:38:34.198Z,93452.69
2023-01-17T00:41:06.162Z,93464.94
2023-01-17T00:43:52.965Z,93456.31
2023-01-17T00:46:40.830Z,93457.53
2023-01-17T00:49:26.967Z,93466.03
2023-01-17T00:52:13.122Z,93467.59
2023-01-17T00:54:59.457Z,93458.34
2023-01-17T00:57:45.870Z,93455.69
2023-01-17T01:00:32.888Z,93452.22
2023-01-17T01:03:20.191Z,93440.84
2023-01-17T01:06:06.426Z,93449.16
2023-01-17T01:08:52.504Z,93443.88
2023-01-17T01:11:40.053Z,93441.19
2023-01-17T01:14:26.941Z,93449.28
2023-01-17T01:17:13.338Z,93454.34
2023-01-17T01:20:00.916Z,93455.00
2023-01-17T01:22:48.961Z,93465.69
2023-01-17T01:25:35.157Z,93463.69
2023-01-17T01:28:25.625Z,93465.06
2023-01-17T01:31:11.491Z,93465.53
2023-01-17T01:33:40.085Z,93470.19
2023-01-17T01:36:10.636Z,93452.81
2023-01-17T01:38:39.574Z,93456.69
2023-01-17T01:41:09.000Z,93452.19
2023-01-17T01:43:47.414Z,93449.00
2023-01-17T01:46:32.806Z,93449.25
2023-01-17T01:49:03.738Z,93454.53
2023-01-17T01:51:37.763Z,93455.34
2023-01-17T01:54:09.136Z,93463.03
2023-01-17T01:56:44.257Z,93463.94
2023-01-17T01:59:15.053Z,93457.84
2023-01-17T02:01:44.066Z,93467.38
2023-01-17T02:04:14.220Z,93471.25
2023-01-17T02:06:50.786Z,93467.66
2023-01-17T02:09:19.709Z,93465.84
2023-01-17T02:11:48.892Z,93474.59
2023-01-17T02:14:17.895Z,93457.84
2023-01-17T02:17:04.730Z,93467.13
2023-01-17T02:19:47.316Z,93456.53
2023-01-17T02:22:50.445Z,93453.06
2023-01-17T02:25:48.924Z,93458.09
2023-01-17T02:28:33.235Z,93457.69
2023-01-17T02:31:05.080Z,93452.53
2023-01-17T02:33:40.661Z,93450.50
2023-01-17T02:36:14.110Z,93454.75
2023-01-17T02:38:48.538Z,93446.09
2023-01-17T02:41:21.089Z,93456.03
2023-01-17T02:43:51.549Z,93440.25
2023-01-17T02:46:21.459Z,93441.72
2023-01-17T02:48:50.463Z,93446.22
2023-01-17T02:51:47.709Z,93447.78
2023-01-17T02:54:40.207Z,93440.63
2023-01-17T02:57:19.753Z,93433.31
2023-01-17T02:59:53.927Z,93438.09
2023-01-17T03:02:29.298Z,93434.22
2023-01-17T03:05:01.568Z,93440.34
2023-01-17T03:07:31.224Z,93433.69
2023-01-17T03:10:03.925Z,93436.88
2023-01-17T03:12:35.046Z,93439.25
2023-01-17T03:15:13.325Z,93435.16
2023-01-17T03:17:48.246Z,93453.94
2023-01-17T03:20:17.325Z,93438.84
2023-01-17T03:22:48.224Z,93445.91
2023-01-17T03:25:18.112Z,93441.16
2023-01-17T03:27:46.874Z,93440.19
2023-01-17T03:30:16.350Z,93448.50
2023-01-17T03:32:46.487Z,93440.53
2023-01-17T03:35:14.847Z,93432.19
2023-01-17T03:37:43.592Z,93433.66
2023-01-17T03:40:13.185Z,93442.00
2023-01-17T03:42:42.957Z,93431.88
2023-01-17T03:45:12.467Z,93436.13
2023-01-17T03:47:41.198Z,93437.34
2023-01-17T03:50:13.283Z,93446.09
2023-01-17T03:52:41.715Z,93443.84
2023-01-17T03:55:11.797Z,93450.34
2023-01-17T03:57:42.773Z,93450.34
2023-01-17T04:00:12.575Z,93442.59
2023-01-17T04:02:41.588Z,93443.41
2023-01-17T04:05:11.943Z,93455.63
2023-01-17T04:07:41.374Z,93458.81
2023-01-17T04:10:11.177Z,93453.19
2023-01-17T04:12:39.900Z,93448.66
2023-01-17T04:15:09.509Z,93442.69
2023-01-17T04:17:40.524Z,93442.72
2023-01-17T04:20:13.752Z,93443.09
2023-01-17T04:22:42.576Z,93441.19
2023-01-17T04:25:11.356Z,93439.09
2023-01-17T04:27:39.716Z,93431.13
2023-01-17T04:30:19.375Z,93441.31
2023-01-17T04:32:47.977Z,93436.31
2023-01-17T04:35:18.218Z,93437.94
2023-01-17T04:37:46.798Z,93445.66
2023-01-17T04:40:15.651Z,93454.03
2023-01-17T04:42:46.613Z,93445.41
2023-01-17T04:45:16.177Z,93451.75
2023-01-17T04:47:44.878Z,93441.28
2023-01-17T04:50:13.767Z,93435.69
2023-01-17T04:52:43.726Z,93442.34
2023-01-17T04:55:12.727Z,93440.47
2023-01-17T04:57:41.489Z,93449.66
2023-01-17T05:00:12.017Z,93442.88
2023-01-17T05:02:40.964Z,93447.41
2023-01-17T05:05:10.646Z,93454.06
2023-01-17T05:07:39.373Z,93446.22
2023-01-17T05:10:10.965Z,93458.34
2023-01-17T05:12:55.053Z,93461.25
2023-01-17T05:16:05.197Z,93459.41
2023-01-17T05:21:16.734Z,93457.41
2023-01-17T05:23:45.245Z,93466.72
2023-01-17T05:26:15.798Z,93463.53
2023-01-17T05:28:44.208Z,93466.59
2023-01-17T05:31:13.146Z,93462.06
2023-01-17T05:33:41.776Z,93482.13
2023-01-17T05:36:10.872Z,93474.69
2023-01-17T05:38:39.534Z,93480.00
2023-01-17T05:41:08.147Z,93482.94
2023-01-17T05:43:38.238Z,93490.25
2023-01-17T05:46:07.039Z,93493.00
2023-01-17T05:48:35.604Z,93496.88
2023-01-17T05:51:04.361Z,93507.13
2023-01-17T05:53:34.839Z,93453.28
2023-01-17T05:56:06.200Z,93499.78
2023-01-17T05:58:35.875Z,93508.97
2023-01-17T06:01:19.768Z,93523.03
2023-01-17T06:03:48.775Z,93515.09
2023-01-17T06:06:19.980Z,93525.06
2023-01-17T06:08:48.511Z,93525.59
2023-01-17T06:11:18.786Z,93541.13
2023-01-17T06:13:47.188Z,93533.56
2023-01-17T06:16:17.510Z,93537.69
2023-01-17T06:18:45.956Z,93544.03
2023-01-17T06:21:14.452Z,93544.06
2023-01-17T06:23:44.326Z,93537.44
2023-01-17T06:26:15.321Z,93541.94
2023-01-17T06:28:43.940Z,93540.88
2023-01-17T06:31:12.827Z,93537.28
2023-01-17T06:33:42.709Z,93542.63
2023-01-17T06:36:11.693Z,93549.28
2023-01-17T06:38:40.409Z,93556.19
2023-01-17T06:41:09.961Z,93553.66
2023-01-17T06:43:38.905Z,93557.75
2023-01-17T06:46:07.674Z,93551.66
2023-01-17T06:48:36.149Z,93552.19
2023-01-17T06:51:06.534Z,93561.47
2023-01-17T06:53:35.127Z,93557.22
2023-01-17T06:56:03.842Z,93577.44
2023-01-17T06:58:32.612Z,93581.94
2023-01-17T07:01:32.671Z,93590.06
2023-01-17T07:04:01.359Z,93582.88
2023-01-17T07:06:31.360Z,93600.03
2023-01-17T07:09:04.307Z,93599.25
2023-01-17T07:11:34.532Z,93600.06
2023-01-17T07:14:03.025Z,93596.84
2023-01-17T07:16:32.106Z,93609.63
2023-01-17T07:19:00.938Z,93614.41
2023-01-17T07:21:31.308Z,93617.47
2023-01-17T07:24:00.012Z,93626.63
2023-01-17T07:26:28.607Z,93617.47
2023-01-17T07:28:57.280Z,93617.19
2023-01-17T07:31:26.168Z,93616.28
2023-01-17T07:33:55.300Z,93615.47
2023-01-17T07:36:23.680Z,93607.53
2023-01-17T07:38:57.487Z,93609.75
2023-01-17T07:41:25.966Z,93609.38
2023-01-17T07:43:56.381Z,93596.59
2023-01-17T07:46:25.265Z,93597.38
2023-01-17T07:48:53.914Z,93597.34
2023-01-17T07:51:22.685Z,93588.00
2023-01-17T07:53:51.208Z,93593.28
2023-01-17T07:56:21.781Z,93598.81
2023-01-17T07:58:50.665Z,93606.72
2023-01-17T08:01:19.715Z,93610.03
2023-01-17T08:03:48.201Z,93613.59
2023-01-17T08:06:21.312Z,93609.38
2023-01-17T08:08:50.042Z,93605.75
2023-01-17T08:11:19.045Z,93608.31
2023-01-17T08:13:48.983Z,93604.38
2023-01-17T08:16:17.778Z,93606.88
2023-01-17T08:18:49.921Z,93594.03
2023-01-17T08:21:20.769Z,93582.31
2023-01-17T08:23:50.006Z,93574.28
2023-01-17T08:27:19.741Z,93570.28
2023-01-17T08:29:49.955Z,93575.66
2023-01-17T08:32:20.109Z,93577.06
2023-01-17T08:34:48.817Z,93579.13
2023-01-17T08:37:17.422Z,93586.34
2023-01-17T08:39:46.303Z,93591.09
2023-01-17T08:42:15.003Z,93597.03
2023-01-17T08:44:44.421Z,93612.00
2023-01-17T08:47:14.637Z,93608.97
2023-01-17T08:49:44.137Z,93612.09
2023-01-17T08:52:14.640Z,93615.72
2023-01-17T08:54:43.783Z,93621.25
2023-01-17T08:57:12.617Z,93611.78
2023-01-17T08:59:41.166Z,93610.28
2023-01-17T09:02:19.177Z,93610.53
2023-01-17T09:04:59.344Z,93622.13
2023-01-17T09:07:28.790Z,93626.78
2023-01-17T09:10:02.112Z,93633.31
2023-01-17T09:12:33.661Z,93645.66
2023-01-17T09:15:03.014Z,93652.16
2023-01-17T09:17:33.066Z,93672.72
2023-01-17T09:20:01.660Z,93675.72
2023-01-17T09:22:30.230Z,93666.84
2023-01-17T09:24:59.146Z,93656.84
2023-01-17T09:27:27.835Z,93647.72
2023-01-17T09:29:56.814Z,93645.34
2023-01-17T09:32:27.613Z,93647.66
2023-01-17T09:35:01.076Z,93645.56
2023-01-17T09:37:30.307Z,93645.25
2023-01-17T09:39:59.132Z,93653.84
2023-01-17T09:42:34.186Z,93648.09
2023-01-17T09:45:02.737Z,93646.03
2023-01-17T09:47:37.374Z,93639.47
2023-01-17T09:50:19.206Z,93636.63
2023-01-17T09:52:49.567Z,93631.56
2023-01-17T09:55:19.182Z,93632.09
2023-01-17T09:57:55.886Z,93619.41
2023-01-17T10:00:48.798Z,93603.56
2023-01-17T10:03:47.752Z,93596.31
2023-01-17T10:06:30.390Z,93595.34
2023-01-17T10:09:14.286Z,93580.19
2023-01-17T10:11:57.614Z,93575.28
2023-01-17T10:14:43.121Z,93568.22
2023-01-17T10:17:23.315Z,93563.00
2023-01-17T10:20:06.179Z,93557.19
2023-01-17T10:22:54.367Z,93551.63
2023-01-17T10:25:38.433Z,93540.97
2023-01-17T10:28:14.663Z,93528.66
2023-01-17T10:31:09.049Z,93518.66
2023-01-17T10:33:41.182Z,93523.78
2023-01-17T10:36:15.567Z,93518.41
2023-01-17T10:38:49.951Z,93513.59
2023-01-17T10:41:44.121Z,93510.38
2023-01-17T10:44:20.772Z,93501.84
2023-01-17T10:47:01.388Z,93502.63
2023-01-17T10:49:30.138Z,93507.38
2023-01-17T10:52:11.146Z,93503.41
2023-01-17T10:54:52.897Z,93495.88
2023-01-17T10:57:22.816Z,93485.94
2023-01-17T10:59:52.583Z,93489.63
2023-01-17T11:02:27.937Z,93498.25
2023-01-17T11:04:57.676Z,93497.47
2023-01-17T11:07:32.823Z,93490.97
2023-01-17T11:10:03.321Z,93488.56
2023-01-17T11:12:34.494Z,93483.34
2023-01-17T11:15:07.273Z,93479.25
2023-01-17T11:17:38.348Z,93472.28
2023-01-17T11:20:20.353Z,93470.28
2023-01-17T11:23:03.720Z,93471.88
2023-01-17T11:25:35.486Z,93478.66
2023-01-17T11:28:07.547Z,93474.13
2023-01-17T11:30:36.777Z,93479.38
2023-01-17T11:34:01.468Z,93488.78
2023-01-17T11:36:31.812Z,93482.91
2023-01-17T11:39:03.091Z,93484.47
2023-01-17T11:41:52.359Z,93474.78
2023-01-17T11:44:26.676Z,93474.22
2023-01-17T11:47:19.215Z,93475.81
2023-01-17T11:49:49.721Z,93467.09
2023-01-17T11:52:23.944Z,93457.81
2023-01-17T11:54:54.295Z,93448.59
2023-01-17T11:57:26.047Z,93429.56
2023-01-17T11:59:59.477Z,93440.63
2023-01-17T12:02:39.873Z,93432.69
2023-01-17T12:05:23.720Z,93412.91
2023-01-17T12:07:59.762Z,93413.41
2023-01-17T12:10:33.605Z,93406.41
2023-01-17T12:13:37.748Z,93397.75
2023-01-17T12:16:31.755Z,93399.06
2023-01-17T12:19:08.172Z,93395.97
2023-01-17T12:21:49.508Z,93402.91
2023-01-17T12:24:37.254Z,93408.44
2023-01-17T12:27:14.262Z,93403.81
2023-01-17T12:29:49.335Z,93414.41
2023-01-17T12:32:44.976Z,93430.59
2023-01-17T12:35:16.861Z,93431.41
2023-01-17T12:37:46.221Z,93423.09
2023-01-17T12:40:24.257Z,93426.69
2023-01-17T12:42:56.324Z,93437.91
2023-01-17T12:45:32.298Z,93442.09
2023-01-17T12:48:06.353Z,93443.34
2023-01-17T12:50:38.508Z,93434.75
2023-01-17T12:53:18.388Z,93431.75
2023-01-17T12:55:51.311Z,93429.06
2023-01-17T12:58:22.709Z,93421.91
2023-01-17T13:00:58.618Z,93422.25
2023-01-17T13:03:33.472Z,93418.81
2023-01-17T13:06:03.247Z,93407.84
2023-01-17T13:08:36.811Z,93406.47
2023-01-17T13:11:08.369Z,93397.25
2023-01-17T13:13:37.123Z,93400.41
2023-01-17T13:16:13.128Z,93396.44
2023-01-17T13:18:45.526Z,93389.13
2023-01-17T13:21:29.789Z,93380.75
2023-01-17T13:24:36.653Z,93362.50
2023-01-17T13:27:38.645Z,93363.13
2023-01-17T13:30:24.019Z,93357.25
2023-01-17T13:33:20.681Z,93358.19
2023-01-17T13:35:58.337Z,93353.13
2023-01-17T13:38:55.383Z,93366.13
2023-01-17T13:41:44.327Z,93370.75
2023-01-17T13:47:43.054Z,93378.72
2023-01-17T13:50:49.984Z,93361.41
2023-01-17T13:53:58.238Z,93359.03
2023-01-17T13:56:34.719Z,93354.28
2023-01-17T13:59:23.481Z,93361.59
2023-01-17T14:01:56.548Z,93357.31
2023-01-17T14:04:26.906Z,93354.75
2023-01-17T14:07:01.337Z,93358.44
2023-01-17T14:09:40.060Z,93366.69
2023-01-17T14:12:26.415Z,93352.09
2023-01-17T14:14:58.789Z,93332.72
2023-01-17T14:17:52.684Z,93323.47
2023-01-17T14:21:05.652Z,93322.56
2023-01-17T14:24:04.001Z,93334.91
2023-01-17T14:26:48.859Z,93330.00
2023-01-17T14:29:50.986Z,93320.00
2023-01-17T14:32:22.029Z,93323.66
2023-01-17T14:34:52.188Z,93326.34
2023-01-17T14:37:30.811Z,93323.03
2023-01-17T14:40:01.892Z,93310.63
2023-01-17T14:42:32.383Z,93290.97
2023-01-17T14:45:04.795Z,93267.63
2023-01-17T14:47:36.043Z,93228.72
2023-01-17T14:50:12.216Z,93252.84
2023-01-17T14:52:40.800Z,93263.97
2023-01-17T14:55:17.184Z,93268.59
2023-01-17T14:57:56.150Z,93267.63
2023-01-17T15:00:29.405Z,93248.44
2023-01-17T15:02:59.604Z,93217.81
2023-01-17T15:05:31.645Z,93215.25
2023-01-17T15:08:00.898Z,93228.59
2023-01-17T15:10:33.683Z,93222.69
2023-01-17T15:13:10.467Z,93203.34
2023-01-17T15:15:45.093Z,93204.31
2023-01-17T15:18:22.767Z,93191.94
2023-01-17T15:20:59.006Z,93177.34
2023-01-17T15:23:31.906Z,93170.34
2023-01-17T15:26:03.661Z,93191.16
2023-01-17T15:28:32.655Z,93196.06
2023-01-17T15:31:06.295Z,93216.06
2023-01-17T15:33:36.275Z,93214.78
2023-01-17T15:36:06.750Z,93208.28
2023-01-17T15:38:39.156Z,93219.03
2023-01-17T15:41:14.951Z,93219.38
2023-01-17T15:43:44.920Z,93198.75
2023-01-17T15:46:30.890Z,93186.38
2023-01-17T15:49:17.321Z,93180.03
2023-01-17T15:51:55.417Z,93177.66
2023-01-17T15:54:34.871Z,93172.75
2023-01-17T15:57:18.190Z,93167.50
2023-01-17T15:59:48.246Z,93185.75
2023-01-17T16:02:38.798Z,93194.28
2023-01-17T16:05:33.549Z,93191.59
2023-01-17T16:08:27.317Z,93179.72
2023-01-17T16:10:58.790Z,93170.66
2023-01-17T16:13:29.218Z,93186.50
2023-01-17T16:16:32.719Z,93200.63
2023-01-17T16:19:02.340Z,93206.63
2023-01-17T16:21:34.153Z,93201.25
2023-01-17T16:24:03.334Z,93204.44
2023-01-17T16:26:32.056Z,93201.25
2023-01-17T16:29:02.136Z,93195.53
2023-01-17T16:31:30.771Z,93192.06
2023-01-17T16:33:59.538Z,93192.69
2023-01-17T16:36:29.195Z,93192.69
2023-01-17T16:38:57.804Z,93198.72
2023-01-17T16:41:26.785Z,93203.00
2023-01-17T16:44:00.269Z,93200.00
2023-01-17T16:46:31.039Z,93197.44
2023-01-17T16:49:01.277Z,93201.88
2023-01-17T16:51:30.206Z,93196.97
2023-01-17T16:54:03.082Z,93193.78
2023-01-17T16:56:32.317Z,93182.03
2023-01-17T16:59:01.320Z,93193.00
2023-01-17T17:01:31.487Z,93206.31
2023-01-17T17:04:00.409Z,93197.63
2023-01-17T17:06:29.571Z,93195.69
2023-01-17T17:09:00.238Z,93194.59
2023-01-17T17:11:28.687Z,93192.69
2023-01-17T17:13:57.765Z,93191.25
2023-01-17T17:16:30.087Z,93195.53
2023-01-17T17:19:01.384Z,93196.50
2023-01-17T17:21:32.117Z,93190.00
2023-01-17T17:24:02.070Z,93188.56
2023-01-17T17:26:34.613Z,93198.69
2023-01-17T17:29:03.802Z,93185.22
2023-01-17T17:31:32.900Z,93182.34
2023-01-17T17:34:03.878Z,93176.97
2023-01-17T17:36:32.797Z,93185.06
2023-01-17T17:39:02.388Z,93175.72
2023-01-17T17:41:32.998Z,93179.38
2023-01-17T17:44:02.314Z,93183.50
2023-01-17T17:46:34.017Z,93190.00
2023-01-17T17:49:06.011Z,93185.88
2023-01-17T17:51:35.866Z,93180.16
2023-01-17T17:54:05.708Z,93182.53
2023-01-17T17:56:37.611Z,93171.91
2023-01-17T17:59:08.633Z,93167.16
2023-01-17T18:01:41.706Z,93173.03
2023-01-17T18:04:12.993Z,93159.38
2023-01-17T18:06:43.596Z,93164.28
2023-01-17T18:09:19.027Z,93147.03
2023-01-17T18:11:48.497Z,93147.50
2023-01-17T18:14:21.270Z,93150.19
2023-01-17T18:16:51.131Z,93158.41
2023-01-17T18:19:23.167Z,93152.09
2023-01-17T18:21:52.591Z,93154.63
2023-01-17T18:24:24.433Z,93155.88
2023-01-17T18:26:54.237Z,93151.44
2023-01-17T18:29:23.628Z,93125.78
2023-01-17T18:31:53.518Z,93122.25
2023-01-17T18:34:24.738Z,93159.38
2023-01-17T18:36:54.108Z,93141.94
2023-01-17T18:39:24.675Z,93128.25
2023-01-17T18:42:03.313Z,93147.63
2023-01-17T18:44:32.133Z,93141.94
2023-01-17T18:47:13.531Z,93144.16
2023-01-17T18:49:46.372Z,93142.38
2023-01-17T18:52:15.463Z,93142.38
2023-01-17T18:54:44.124Z,93140.97
2023-01-17T18:57:14.797Z,93148.25
2023-01-17T18:59:44.744Z,93145.41
2023-01-17T19:02:18.320Z,93145.25
2023-01-17T19:04:49.448Z,93149.03
2023-01-17T19:07:18.771Z,93139.84
2023-01-17T19:09:47.225Z,93144.91
2023-01-17T19:12:20.705Z,93149.34
2023-01-17T19:14:49.516Z,93146.00
2023-01-17T19:17:19.175Z,93133.97
2023-01-17T19:19:49.977Z,93128.09
2023-01-17T19:22:18.748Z,93131.75
2023-01-17T19:24:53.374Z,93133.97
2023-01-17T19:27:22.421Z,93134.75
2023-01-17T19:29:51.274Z,93135.69
2023-01-17T19:32:19.780Z,93125.41
2023-01-17T19:34:51.811Z,93114.34
2023-01-17T19:37:29.613Z,93113.06
2023-01-17T19:39:58.565Z,93110.34
2023-01-17T19:42:28.965Z,93118.75
2023-01-17T19:44:57.724Z,93120.16
2023-01-17T19:47:26.579Z,93116.81
2023-01-17T19:49:57.091Z,93118.59
2023-01-17T19:52:26.514Z,93116.81
2023-01-17T19:54:54.949Z,93111.44
2023-01-17T19:57:24.581Z,93125.22
2023-01-17T19:59:53.356Z,93129.16
2023-01-17T20:02:22.596Z,93111.56
2023-01-17T20:04:51.413Z,93105.72
2023-01-17T20:07:21.632Z,93104.63
2023-01-17T20:09:51.418Z,93103.53
2023-01-17T20:12:20.271Z,93101.94
2023-01-17T20:14:50.023Z,93096.75
2023-01-17T20:17:19.225Z,93090.09
2023-01-17T20:19:47.929Z,93109.44
2023-01-17T20:22:16.773Z,93108.03
2023-01-17T20:24:47.107Z,93107.22
2023-01-17T20:27:15.508Z,93105.50
2023-01-17T20:29:44.470Z,93100.44
2023-01-17T20:32:13.043Z,93100.59
2023-01-17T20:34:45.362Z,93100.09
2023-01-17T20:37:14.131Z,93103.56
2023-01-17T20:39:44.591Z,93113.38
2023-01-17T20:42:16.648Z,93115.91
2023-01-17T20:44:45.691Z,93115.00
2023-01-17T20:47:14.430Z,93107.38
2023-01-17T20:49:43.822Z,93117.69
2023-01-17T20:52:14.571Z,93119.56
2023-01-17T20:54:47.082Z,93117.69
2023-01-17T20:57:18.204Z,93118.44
2023-01-17T20:59:48.558Z,93104.84
2023-01-17T21:02:17.372Z,93095.66
2023-01-17T21:04:49.313Z,93094.38
2023-01-17T21:07:18.205Z,93094.88
2023-01-17T21:09:46.907Z,93096.44
2023-01-17T21:12:17.241Z,93086.13
2023-01-17T21:14:45.994Z,93109.75
2023-01-17T21:17:16.334Z,93098.50
2023-01-17T21:19:44.760Z,93100.88
2023-01-17T21:22:17.100Z,93105.28
2023-01-17T21:24:45.487Z,93102.00
2023-01-17T21:27:16.582Z,93110.53
2023-01-17T21:29:49.857Z,93099.13
2023-01-17T21:32:18.612Z,93103.25
2023-01-17T21:34:47.237Z,93106.75
2023-01-17T21:37:16.222Z,93106.75
2023-01-17T21:39:46.897Z,93106.91
2023-01-17T21:42:15.701Z,93107.97
2023-01-17T21:44:45.841Z,93099.91
2023-01-17T21:47:16.878Z,93093.09
2023-01-17T21:49:46.470Z,93098.16
2023-01-17T21:52:22.566Z,93089.91
2023-01-17T21:55:08.904Z,93097.53
2023-01-17T21:57:55.274Z,93090.88
2023-01-17T22:00:24.931Z,93098.75
2023-01-17T22:02:57.482Z,93103.06
2023-01-17T22:05:27.883Z,93112.41
2023-01-17T22:08:19.284Z,93107.94
2023-01-17T22:10:48.045Z,93108.72
2023-01-17T22:13:18.582Z,93116.75
2023-01-17T22:15:47.734Z,93114.38
2023-01-17T22:18:18.114Z,93119.28
2023-01-17T22:20:46.548Z,93110.53
2023-01-17T22:23:15.827Z,93125.31
2023-01-17T22:25:44.946Z,93126.25
2023-01-17T22:28:13.567Z,93124.34
2023-01-17T22:30:42.309Z,93120.25
2023-01-17T22:33:11.360Z,93117.56
2023-01-17T22:35:41.556Z,93120.72
2023-01-17T22:38:10.107Z,93112.63
2023-01-17T22:40:39.399Z,93118.78
2023-01-17T22:43:08.237Z,93096.88
2023-01-17T22:45:37.688Z,93118.94
2023-01-17T22:48:06.706Z,93114.50
2023-01-17T22:50:35.481Z,93119.88
2023-01-17T22:53:06.037Z,93123.06
2023-01-17T22:55:34.845Z,93116.72
2023-01-17T22:58:03.427Z,93123.34
2023-01-17T23:00:31.825Z,93125.09
2023-01-17T23:03:01.402Z,93131.59
2023-01-17T23:05:30.041Z,93125.59
2023-01-17T23:08:02.104Z,93123.84
2023-01-17T23:10:50.032Z,93127.97
2023-01-17T23:13:18.764Z,93125.59
2023-01-17T23:16:05.094Z,93128.47
2023-01-17T23:19:00.433Z,93129.25
2023-01-17T23:21:49.107Z,93120.72
2023-01-17T23:24:18.076Z,93116.56
2023-01-17T23:27:08.422Z,93117.69
2023-01-17T23:29:36.004Z,93127.66
2023-01-17T23:32:04.664Z,93126.38
2023-01-17T23:34:33.087Z,93127.97
2023-01-17T23:37:03.675Z,93123.06
2023-01-17T23:39:32.772Z,93039.91
2023-01-17T23:42:19.896Z,93116.56
2023-01-17T23:44:48.494Z,93107.22
2023-01-17T23:47:16.919Z,93110.69
2023-01-17T23:49:51.229Z,93120.97
2023-01-17T23:52:20.218Z,93126.19
2023-01-17T23:54:50.098Z,93124.63
2023-01-17T23:57:20.101Z,93120.75
2023-01-17T23:59:48.958Z,93126.47
